Time;durP1;ratioP1;P1;durP2;ratioP2;P2;SDS_P1;SDS_P2;PMS_P1;PMS_P2;Temp;Humidity;BMP_temperature;BMP_pressure;BME280_temperature;BME280_humidity;BME280_pressure;Samples;Min_cycle;Max_cycle;Signal;HPM_P1;HPM_P2
2023/02/21 02:15:15;;;;;;;46.22;27.70;;;9.20;99.90;;;;;;7364656;19;20015;-65
2023/02/21 02:18:07;;;;;;;42.35;27.98;;;9.20;99.90;;;;;;7370355;19;20018;-64
2023/02/21 02:20:55;;;;;;;50.70;28.75;;;9.20;99.90;;;;;;7371415;19;20416;-64
2023/02/21 02:23:39;;;;;;;45.20;28.95;;;9.20;99.90;;;;;;7373535;19;20022;-65
2023/02/21 02:26:24;;;;;;;45.65;27.48;;;9.20;99.90;;;;;;7370279;19;20019;-65
2023/02/21 02:29:31;;;;;;;44.05;26.33;;;9.20;99.90;;;;;;7371521;19;20732;-65
2023/02/21 02:32:16;;;;;;;44.83;26.77;;;9.20;99.90;;;;;;7368772;19;20014;-65
2023/02/21 02:35:05;;;;;;;46.78;27.63;;;9.20;99.90;;;;;;7368536;19;20060;-64
2023/02/21 02:37:45;;;;;;;43.30;27.42;;;9.20;99.90;;;;;;7372299;19;20636;-64
2023/02/21 02:40:56;;;;;;;43.45;26.58;;;9.30;99.90;;;;;;7371062;19;20030;-64
2023/02/21 02:43:32;;;;;;;43.45;28.23;;;9.30;99.90;;;;;;7366395;19;20039;-64
2023/02/21 02:46:01;;;;;;;44.15;26.73;;;9.30;99.90;;;;;;7368752;19;20014;-64
2023/02/21 02:48:47;;;;;;;41.63;26.10;;;9.30;99.90;;;;;;7374190;19;20018;-65
2023/02/21 02:51:15;;;;;;;45.08;28.10;;;9.30;99.90;;;;;;7372384;19;20469;-65
2023/02/21 02:53:41;;;;;;;46.15;28.63;;;9.30;99.90;;;;;;7367780;19;20839;-65
2023/02/21 02:56:22;;;;;;;37.03;25.35;;;9.30;99.90;;;;;;7371650;19;20301;-64
2023/02/21 02:59:12;;;;;;;41.88;28.52;;;9.30;99.90;;;;;;7363991;19;20023;-64
2023/02/21 03:01:50;;;;;;;49.57;29.13;;;9.30;99.90;;;;;;7377606;19;20022;-65
2023/02/21 03:04:31;;;;;;;48.65;29.30;;;9.30;99.90;;;;;;7385442;19;20532;-66
2023/02/21 03:07:21;;;;;;;41.20;28.33;;;9.30;99.90;;;;;;7384533;19;20023;-65
2023/02/21 03:09:56;;;;;;;46.67;29.52;;;9.30;99.90;;;;;;7388137;19;20014;-64
2023/02/21 03:12:31;;;;;;;44.78;29.30;;;9.30;99.90;;;;;;7389384;19;20030;-65
2023/02/21 03:15:06;;;;;;;44.17;28.98;;;9.30;99.90;;;;;;7382447;19;20023;-64
2023/02/21 03:17:39;;;;;;;45.15;28.83;;;9.30;99.90;;;;;;7385453;19;20098;-65
2023/02/21 03:20:12;;;;;;;50.13;28.77;;;9.20;99.90;;;;;;7385664;19;20506;-64
2023/02/21 03:22:42;;;;;;;42.15;29.42;;;9.30;99.90;;;;;;7384186;19;20078;-64
2023/02/21 03:25:10;;;;;;;46.40;30.85;;;9.30;99.90;;;;;;7384194;19;20014;-65
2023/02/21 03:27:40;;;;;;;52.10;31.20;;;9.30;99.90;;;;;;7384519;19;20014;-64
2023/02/21 03:30:35;;;;;;;48.45;30.10;;;9.20;99.90;;;;;;7389404;19;20018;-67
2023/02/21 03:33:02;;;;;;;49.17;30.55;;;9.20;99.90;;;;;;7384255;19;21019;-65
2023/02/21 03:35:29;;;;;;;48.45;29.70;;;9.20;99.90;;;;;;7386190;19;20493;-65
2023/02/21 03:37:58;;;;;;;43.03;31.17;;;9.20;99.90;;;;;;7383429;19;20776;-65
2023/02/21 03:40:32;;;;;;;47.92;31.23;;;9.20;99.90;;;;;;7384327;19;20022;-64
2023/02/21 03:43:02;;;;;;;47.58;30.73;;;9.20;99.90;;;;;;7385223;19;20366;-65
2023/02/21 03:45:33;;;;;;;40.22;28.98;;;9.20;99.90;;;;;;7380163;19;20025;-65
2023/02/21 03:48:16;;;;;;;46.10;29.25;;;9.20;99.90;;;;;;7383762;19;20043;-65
2023/02/21 03:50:43;;;;;;;47.45;30.40;;;9.20;99.90;;;;;;7384509;19;20405;-65
2023/02/21 03:53:10;;;;;;;48.70;31.00;;;9.20;99.90;;;;;;7383536;19;20384;-64
2023/02/21 03:55:38;;;;;;;43.13;30.00;;;9.20;99.90;;;;;;7380499;19;20029;-65
2023/02/21 03:58:10;;;;;;;46.03;31.40;;;9.30;99.90;;;;;;7380781;19;20019;-65
2023/02/21 04:00:37;;;;;;;47.40;29.80;;;9.30;99.90;;;;;;7385145;19;20015;-66
2023/02/21 04:03:04;;;;;;;44.63;29.75;;;9.30;99.90;;;;;;7385082;19;20078;-64
2023/02/21 04:05:37;;;;;;;43.03;30.42;;;9.30;99.90;;;;;;7384511;19;20390;-65
2023/02/21 04:08:03;;;;;;;50.70;32.45;;;9.30;99.90;;;;;;7381781;19;20014;-65
2023/02/21 04:10:30;;;;;;;43.72;29.27;;;9.30;99.90;;;;;;7384739;19;20018;-64
2023/02/21 04:13:00;;;;;;;41.95;29.83;;;9.30;99.90;;;;;;7375258;19;20013;-64
2023/02/21 04:15:30;;;;;;;50.35;30.30;;;9.30;99.90;;;;;;7375401;19;20018;-64
2023/02/21 04:17:57;;;;;;;44.80;29.40;;;9.30;99.90;;;;;;7374068;19;20061;-64
2023/02/21 04:20:24;;;;;;;45.90;29.92;;;9.20;99.90;;;;;;7377615;19;20018;-65
2023/02/21 04:22:54;;;;;;;42.63;29.77;;;9.20;99.90;;;;;;7376782;19;20015;-64
2023/02/21 04:25:20;;;;;;;43.92;29.33;;;9.20;99.90;;;;;;7375697;19;20053;-64
2023/02/21 04:27:59;;;;;;;42.28;28.65;;;9.20;99.90;;;;;;7376200;19;20119;-65
2023/02/21 04:30:26;;;;;;;45.25;30.95;;;9.20;99.90;;;;;;7376720;19;20026;-64
2023/02/21 04:32:52;;;;;;;44.50;29.45;;;9.20;99.90;;;;;;7375164;19;20023;-65
2023/02/21 04:35:19;;;;;;;45.85;29.88;;;9.30;99.90;;;;;;7378334;19;20026;-65
2023/02/21 04:37:45;;;;;;;43.72;28.73;;;9.30;99.90;;;;;;7375323;19;20010;-64
2023/02/21 04:40:12;;;;;;;42.63;28.55;;;9.20;99.90;;;;;;7375628;19;20831;-65
2023/02/21 04:42:46;;;;;;;48.63;29.75;;;9.20;99.90;;;;;;7377168;19;20024;-64
2023/02/21 04:45:13;;;;;;;42.80;28.70;;;9.30;99.90;;;;;;7374587;19;20382;-64
2023/02/21 04:47:39;;;;;;;48.72;30.88;;;9.30;99.90;;;;;;7371236;19;21102;-64
2023/02/21 04:50:06;;;;;;;45.38;29.17;;;9.30;99.90;;;;;;7374983;19;20488;-64
2023/02/21 04:52:33;;;;;;;42.72;29.00;;;9.30;99.90;;;;;;7374349;19;20015;-64
2023/02/21 04:54:59;;;;;;;42.88;29.17;;;9.30;99.90;;;;;;7374657;19;20025;-64
2023/02/21 04:57:25;;;;;;;37.53;28.05;;;9.30;99.90;;;;;;7375137;19;20021;-64
2023/02/21 04:59:57;;;;;;;43.08;29.23;;;9.30;99.90;;;;;;7372212;19;20014;-65
2023/02/21 05:02:23;;;;;;;40.53;27.97;;;9.30;99.90;;;;;;7373502;19;20138;-65
2023/02/21 05:04:49;;;;;;;44.85;30.95;;;9.30;99.90;;;;;;7375921;19;20036;-65
2023/02/21 05:07:16;;;;;;;40.78;28.75;;;9.30;99.90;;;;;;7375488;19;20014;-64
2023/02/21 05:09:45;;;;;;;43.70;30.80;;;9.30;99.90;;;;;;7373773;19;20033;-64
2023/02/21 05:12:11;;;;;;;46.50;29.35;;;9.30;99.90;;;;;;7373758;19;20052;-65
2023/02/21 05:14:38;;;;;;;42.45;30.25;;;9.30;99.90;;;;;;7371713;19;20351;-65
2023/02/21 05:17:05;;;;;;;49.03;32.38;;;9.30;99.90;;;;;;7373082;19;20508;-65
2023/02/21 05:19:32;;;;;;;45.03;30.85;;;9.30;99.90;;;;;;7375582;19;20037;-65
2023/02/21 05:22:00;;;;;;;46.33;30.85;;;9.30;99.90;;;;;;7370897;19;20018;-64
2023/02/21 05:24:29;;;;;;;47.35;30.63;;;9.20;99.90;;;;;;7373274;19;20041;-64
2023/02/21 05:26:56;;;;;;;45.42;30.25;;;9.20;99.90;;;;;;7369815;19;20023;-64
2023/02/21 05:29:23;;;;;;;45.90;31.23;;;9.20;99.90;;;;;;7369540;19;20018;-64
2023/02/21 05:31:50;;;;;;;49.90;33.75;;;9.20;99.90;;;;;;7369663;19;20018;-65
2023/02/21 05:34:18;;;;;;;45.75;31.90;;;9.20;99.90;;;;;;7370991;19;20385;-64
2023/02/21 05:36:45;;;;;;;49.35;31.50;;;9.20;99.90;;;;;;7373772;19;20029;-65
2023/02/21 05:39:11;;;;;;;52.63;32.25;;;9.20;99.90;;;;;;7374034;19;20018;-65
2023/02/21 05:41:38;;;;;;;45.33;31.30;;;9.20;99.90;;;;;;7369650;19;20018;-64
2023/02/21 05:44:05;;;;;;;42.83;32.22;;;9.20;99.90;;;;;;7372507;19;20477;-65
2023/02/21 05:46:33;;;;;;;50.45;31.48;;;9.10;99.90;;;;;;7374259;19;20519;-64
2023/02/21 05:49:02;;;;;;;42.55;30.17;;;9.20;99.90;;;;;;7371810;19;20293;-65
2023/02/21 05:51:35;;;;;;;45.83;31.25;;;9.20;99.90;;;;;;7370380;19;20078;-64
2023/02/21 05:54:03;;;;;;;42.60;30.75;;;9.20;99.90;;;;;;7372197;19;20029;-64
2023/02/21 05:56:30;;;;;;;49.75;31.40;;;9.20;99.90;;;;;;7375469;19;20057;-64
2023/02/21 05:58:56;;;;;;;49.08;31.63;;;9.20;99.90;;;;;;7373775;19;20890;-64
2023/02/21 06:01:23;;;;;;;46.95;31.73;;;9.20;99.90;;;;;;7372186;19;20025;-64
2023/02/21 06:03:49;;;;;;;46.20;31.50;;;9.20;99.90;;;;;;7369111;19;20014;-64
2023/02/21 06:06:15;;;;;;;44.72;30.45;;;9.20;99.90;;;;;;7372244;19;20070;-64
2023/02/21 06:08:46;;;;;;;47.03;31.70;;;9.20;99.90;;;;;;7368825;19;20026;-63
2023/02/21 06:11:14;;;;;;;49.53;32.30;;;9.20;99.90;;;;;;7374222;19;20751;-64
2023/02/21 06:13:40;;;;;;;42.42;30.63;;;9.20;99.90;;;;;;7370835;19;20019;-64
2023/02/21 06:16:07;;;;;;;46.92;31.67;;;9.10;99.90;;;;;;7370653;19;20029;-64
2023/02/21 06:18:33;;;;;;;48.47;32.22;;;9.10;99.90;;;;;;7369324;19;21703;-64
2023/02/21 06:21:01;;;;;;;51.95;32.65;;;9.10;99.90;;;;;;7365201;19;20025;-64
2023/02/21 06:23:28;;;;;;;55.97;33.17;;;9.10;99.90;;;;;;7369622;19;20015;-65
2023/02/21 06:25:57;;;;;;;48.65;34.00;;;9.10;99.90;;;;;;7367675;19;20381;-64
2023/02/21 06:28:30;;;;;;;51.35;32.13;;;9.10;99.90;;;;;;7367333;19;20025;-64
2023/02/21 06:30:58;;;;;;;47.63;30.95;;;9.10;99.90;;;;;;7363138;19;20022;-64
2023/02/21 06:33:29;;;;;;;43.55;31.75;;;9.00;99.90;;;;;;7363483;19;20023;-64
2023/02/21 06:35:56;;;;;;;49.63;32.13;;;9.10;99.90;;;;;;7368020;19;20741;-64
2023/02/21 06:38:23;;;;;;;48.17;31.20;;;9.10;99.90;;;;;;7372093;19;20018;-64
2023/02/21 06:40:49;;;;;;;52.53;32.28;;;9.00;99.90;;;;;;7369285;19;20017;-66
2023/02/21 06:43:15;;;;;;;47.42;32.08;;;9.10;99.90;;;;;;7370006;19;20019;-64
2023/02/21 06:45:43;;;;;;;54.53;33.13;;;9.10;99.90;;;;;;7367535;19;20018;-64
2023/02/21 06:48:16;;;;;;;45.92;32.97;;;9.00;99.90;;;;;;7369281;19;20018;-64
2023/02/21 06:50:43;;;;;;;57.20;33.85;;;9.10;99.90;;;;;;7367718;19;20014;-64
2023/02/21 06:53:10;;;;;;;49.80;31.42;;;9.10;99.90;;;;;;7372099;19;20025;-64
2023/02/21 06:55:36;;;;;;;46.00;32.63;;;9.10;99.90;;;;;;7370102;19;20841;-64
2023/02/21 06:58:05;;;;;;;49.70;32.78;;;9.10;99.90;;;;;;7368710;19;20474;-64
2023/02/21 07:00:32;;;;;;;50.47;32.45;;;9.10;99.90;;;;;;7366182;19;20040;-64
2023/02/21 07:02:59;;;;;;;49.53;31.23;;;9.10;99.90;;;;;;7367352;19;22054;-64
2023/02/21 07:05:26;;;;;;;51.00;32.92;;;9.10;99.90;;;;;;7369352;19;20430;-64
2023/02/21 07:07:54;;;;;;;50.45;31.95;;;9.10;99.90;;;;;;7366568;19;20011;-64
2023/02/21 07:10:20;;;;;;;53.70;33.40;;;9.10;99.90;;;;;;7368398;19;20410;-64
2023/02/21 07:12:47;;;;;;;52.75;34.30;;;9.10;99.90;;;;;;7364543;19;20412;-64
2023/02/21 07:15:16;;;;;;;44.15;31.33;;;9.10;99.90;;;;;;7361212;19;20031;-64
2023/02/21 07:17:43;;;;;;;46.20;32.47;;;9.10;99.90;;;;;;7367755;19;20023;-64
2023/02/21 07:20:10;;;;;;;48.95;32.25;;;9.10;99.90;;;;;;7371035;19;20045;-64
2023/02/21 07:22:39;;;;;;;44.25;32.22;;;9.10;99.90;;;;;;7370611;19;20029;-64
2023/02/21 07:25:06;;;;;;;49.60;33.40;;;9.10;99.90;;;;;;7368750;19;20010;-64
2023/02/21 07:27:32;;;;;;;48.92;33.53;;;9.10;99.90;;;;;;7371589;19;20528;-64
2023/02/21 07:30:01;;;;;;;48.00;33.22;;;9.20;99.90;;;;;;7372194;19;20041;-64
2023/02/21 07:32:31;;;;;;;49.03;33.78;;;9.20;99.90;;;;;;7367115;19;20019;-64
2023/02/21 07:34:57;;;;;;;53.80;33.63;;;9.20;99.90;;;;;;7371992;19;20870;-64
2023/02/21 07:37:23;;;;;;;47.50;34.22;;;9.20;99.90;;;;;;7366955;19;20038;-64
2023/02/21 07:39:50;;;;;;;48.90;32.63;;;9.20;99.90;;;;;;7369386;19;20082;-64
2023/02/21 07:42:16;;;;;;;51.38;33.60;;;9.20;99.90;;;;;;7366232;19;20022;-64
2023/02/21 07:44:46;;;;;;;47.88;33.28;;;9.20;99.90;;;;;;7369298;19;20035;-64
2023/02/21 07:47:19;;;;;;;48.00;31.33;;;9.20;99.90;;;;;;7368747;19;20018;-64
2023/02/21 07:49:46;;;;;;;53.45;35.50;;;9.20;99.90;;;;;;7376314;19;20106;-64
2023/02/21 07:52:12;;;;;;;51.10;33.28;;;9.30;99.90;;;;;;7372699;19;20015;-64
2023/02/21 07:54:38;;;;;;;48.33;34.15;;;9.30;99.90;;;;;;7377169;19;20018;-63
2023/02/21 07:57:06;;;;;;;50.35;33.22;;;9.30;99.90;;;;;;7370551;19;20022;-64
2023/02/21 07:59:32;;;;;;;51.22;34.33;;;9.30;99.90;;;;;;7376860;19;20489;-64
2023/02/21 08:02:04;;;;;;;51.20;31.58;;;9.30;99.90;;;;;;7371423;19;21136;-65
2023/02/21 08:04:30;;;;;;;50.53;32.70;;;9.30;99.90;;;;;;7378868;19;20022;-64
2023/02/21 08:07:00;;;;;;;46.65;31.27;;;9.30;99.90;;;;;;7376682;19;20026;-64
2023/02/21 08:09:27;;;;;;;48.78;31.92;;;9.40;99.90;;;;;;7379044;19;20026;-64
2023/02/21 08:11:54;;;;;;;52.78;31.70;;;9.40;99.90;;;;;;7374163;19;20029;-65
2023/02/21 08:14:21;;;;;;;53.33;33.63;;;9.40;99.90;;;;;;7377449;19;20014;-64
2023/02/21 08:16:47;;;;;;;49.00;31.48;;;9.40;99.90;;;;;;7376793;19;20018;-64
2023/02/21 08:19:13;;;;;;;49.20;33.88;;;9.40;99.90;;;;;;7376268;19;20039;-64
2023/02/21 08:22:00;;;;;;;48.70;35.28;;;9.40;99.90;;;;;;7373610;19;20033;-64
2023/02/21 08:24:26;;;;;;;51.78;34.42;;;9.40;99.90;;;;;;7379155;19;20019;-64
2023/02/21 08:26:52;;;;;;;51.35;34.42;;;9.40;99.90;;;;;;7376583;19;20010;-64
2023/02/21 08:29:19;;;;;;;54.90;34.75;;;9.40;99.90;;;;;;7375298;19;20455;-64
2023/02/21 08:31:45;;;;;;;53.58;35.03;;;9.40;99.90;;;;;;7372423;19;20461;-66
2023/02/21 08:34:14;;;;;;;50.80;35.10;;;9.40;99.90;;;;;;7378212;19;20734;-64
2023/02/21 08:36:42;;;;;;;49.25;34.35;;;9.40;99.90;;;;;;7375749;19;20025;-64
2023/02/21 08:39:11;;;;;;;50.03;35.72;;;9.50;99.90;;;;;;7375953;19;20102;-64
2023/02/21 08:41:42;;;;;;;49.65;34.22;;;9.50;99.90;;;;;;7371534;19;20015;-65
2023/02/21 08:44:11;;;;;;;50.33;35.75;;;9.50;99.90;;;;;;7371196;19;20018;-64
2023/02/21 08:46:57;;;;;;;56.00;37.08;;;9.50;99.90;;;;;;7371333;19;20015;-64
2023/02/21 08:49:28;;;;;;;53.13;36.17;;;9.60;99.90;;;;;;7373587;19;20023;-64
2023/02/21 08:51:55;;;;;;;48.97;35.95;;;9.60;99.90;;;;;;7372487;19;20573;-64
2023/02/21 08:54:21;;;;;;;57.10;36.58;;;9.60;99.90;;;;;;7374655;19;20361;-64
2023/02/21 08:56:48;;;;;;;49.92;35.00;;;9.60;99.90;;;;;;7375320;19;20021;-64
2023/02/21 08:59:17;;;;;;;53.45;35.50;;;9.60;99.90;;;;;;7375981;19;20026;-64
2023/02/21 09:01:44;;;;;;;50.47;35.95;;;9.70;99.90;;;;;;7369249;19;20022;-64
2023/02/21 09:04:10;;;;;;;49.83;36.50;;;9.70;99.90;;;;;;7374473;19;20025;-64
2023/02/21 09:06:36;;;;;;;51.28;36.30;;;9.80;99.90;;;;;;7370852;19;20513;-64
2023/02/21 09:09:03;;;;;;;53.50;36.15;;;9.90;99.90;;;;;;7375145;19;20010;-64
2023/02/21 09:11:29;;;;;;;46.13;35.50;;;9.90;99.90;;;;;;7372413;19;20014;-64
2023/02/21 09:13:55;;;;;;;55.42;37.45;;;9.90;99.90;;;;;;7372999;19;20041;-64
2023/02/21 09:16:22;;;;;;;49.15;36.63;;;9.90;99.90;;;;;;7366717;19;21237;-64
2023/02/21 09:19:00;;;;;;;52.88;36.03;;;9.90;99.90;;;;;;7372590;19;20022;-64
2023/02/21 09:21:27;;;;;;;52.85;37.38;;;9.90;99.90;;;;;;7373377;19;20014;-64
2023/02/21 09:23:55;;;;;;;46.75;35.75;;;9.90;99.90;;;;;;7372263;19;20018;-64
2023/02/21 09:26:23;;;;;;;53.03;38.42;;;9.90;99.90;;;;;;7370878;19;20487;-64
2023/02/21 09:28:53;;;;;;;52.50;36.60;;;10.00;99.90;;;;;;7370711;19;20496;-64
2023/02/21 09:31:19;;;;;;;49.80;36.67;;;10.00;99.90;;;;;;7371763;19;20018;-64
2023/02/21 09:33:46;;;;;;;50.63;36.75;;;10.00;99.90;;;;;;7364591;19;20026;-64
2023/02/21 09:36:13;;;;;;;49.75;38.85;;;10.10;99.90;;;;;;7363897;19;20010;-65
2023/02/21 09:38:40;;;;;;;48.67;37.20;;;10.10;99.90;;;;;;7362533;19;21480;-64
2023/02/21 09:41:11;;;;;;;49.50;36.35;;;10.10;99.90;;;;;;7362002;19;20875;-64
2023/02/21 09:43:42;;;;;;;54.38;39.25;;;10.10;99.90;;;;;;7360093;19;20014;-64
2023/02/21 09:46:10;;;;;;;55.17;37.95;;;10.10;99.90;;;;;;7361611;19;20011;-64
2023/02/21 09:48:38;;;;;;;50.47;36.05;;;10.10;99.90;;;;;;7362391;19;20041;-64
2023/02/21 09:51:08;;;;;;;47.67;36.95;;;10.10;99.90;;;;;;7359421;19;20022;-64
2023/02/21 09:53:45;;;;;;;60.85;38.30;;;10.20;99.90;;;;;;7358276;19;20025;-64
2023/02/21 09:56:18;;;;;;;51.25;37.45;;;10.10;99.90;;;;;;7360695;19;20019;-64
2023/02/21 09:58:44;;;;;;;47.38;35.88;;;10.10;99.90;;;;;;7359453;19;20014;-64
2023/02/21 10:01:23;;;;;;;50.28;37.70;;;10.10;99.90;;;;;;7359766;19;20026;-64
2023/02/21 10:04:03;;;;;;;49.90;36.55;;;10.10;99.90;;;;;;7357699;19;20018;-63
2023/02/21 10:06:52;;;;;;;53.63;38.08;;;10.10;99.90;;;;;;7359669;19;20476;-64
2023/02/21 10:09:43;;;;;;;50.50;37.83;;;10.10;99.90;;;;;;7362748;19;20022;-63
2023/02/21 10:12:53;;;;;;;54.10;37.75;;;10.20;99.90;;;;;;7359221;19;20058;-63
2023/02/21 10:15:42;;;;;;;56.35;35.55;;;10.20;99.90;;;;;;7362086;19;20018;-63
2023/02/21 10:18:21;;;;;;;50.85;37.13;;;10.10;99.90;;;;;;7359024;19;20029;-64
2023/02/21 10:20:51;;;;;;;50.40;34.58;;;10.20;99.90;;;;;;7358502;19;20703;-64
2023/02/21 10:23:26;;;;;;;58.95;40.10;;;10.20;99.90;;;;;;7361739;19;21039;-64
2023/02/21 10:26:06;;;;;;;54.88;38.58;;;10.20;99.90;;;;;;7363393;19;20020;-64
2023/02/21 10:28:32;;;;;;;50.90;37.58;;;10.20;99.90;;;;;;7370094;19;20025;-64
2023/02/21 10:31:05;;;;;;;60.92;38.00;;;10.20;99.90;;;;;;7367926;19;20037;-64
2023/02/21 10:33:35;;;;;;;52.17;38.35;;;10.10;99.90;;;;;;7368926;19;20482;-64
2023/02/21 10:36:01;;;;;;;51.00;37.28;;;10.20;99.90;;;;;;7366142;19;20478;-64
2023/02/21 10:38:28;;;;;;;45.60;36.25;;;10.20;99.90;;;;;;7373337;19;20631;-64
2023/02/21 10:41:02;;;;;;;52.30;38.28;;;10.20;99.90;;;;;;7366771;19;20780;-65
2023/02/21 10:43:28;;;;;;;46.45;36.05;;;10.20;99.90;;;;;;7370719;19;20018;-64
2023/02/21 10:45:57;;;;;;;52.22;37.15;;;10.30;99.90;;;;;;7367783;19;20022;-64
2023/02/21 10:48:29;;;;;;;47.80;35.70;;;10.40;99.90;;;;;;7369671;19;20779;-64
2023/02/21 10:51:05;;;;;;;49.95;36.17;;;10.30;99.90;;;;;;7368516;19;20493;-64
2023/02/21 10:53:40;;;;;;;49.47;36.95;;;10.30;99.90;;;;;;7372279;19;20493;-63
2023/02/21 10:56:18;;;;;;;49.65;35.15;;;10.30;99.90;;;;;;7371701;19;20021;-64
2023/02/21 10:58:56;;;;;;;50.03;38.22;;;10.40;99.90;;;;;;7370325;19;20017;-64
2023/02/21 11:01:25;;;;;;;45.67;36.78;;;10.30;99.90;;;;;;7371582;19;20018;-64
2023/02/21 11:04:01;;;;;;;57.95;39.75;;;10.30;99.90;;;;;;7371358;19;20074;-64
2023/02/21 11:06:37;;;;;;;49.85;36.88;;;10.30;99.90;;;;;;7370396;19;20582;-64
2023/02/21 11:09:26;;;;;;;48.33;36.55;;;10.30;99.90;;;;;;7368629;19;20039;-64
2023/02/21 11:12:01;;;;;;;44.88;35.47;;;10.40;99.90;;;;;;7368691;19;20049;-64
2023/02/21 11:14:29;;;;;;;46.10;35.85;;;10.40;99.90;;;;;;7368901;19;20019;-64
2023/02/21 11:17:09;;;;;;;51.47;39.17;;;10.30;99.90;;;;;;7369680;19;20600;-63
2023/02/21 11:19:43;;;;;;;49.10;39.95;;;10.30;99.90;;;;;;7369646;19;20034;-64
2023/02/21 11:22:09;;;;;;;48.15;37.72;;;10.40;99.90;;;;;;7371385;19;20014;-64
2023/02/21 11:24:52;;;;;;;47.88;38.10;;;10.40;99.90;;;;;;7376518;19;20018;-63
2023/02/21 11:27:19;;;;;;;51.15;38.28;;;10.40;99.90;;;;;;7377542;19;20061;-64
2023/02/21 11:29:49;;;;;;;49.58;39.33;;;10.40;99.90;;;;;;7379674;19;20021;-64
2023/02/21 11:32:25;;;;;;;53.97;39.40;;;10.40;99.90;;;;;;7374756;19;20902;-64
2023/02/21 11:35:19;;;;;;;51.65;37.38;;;10.50;99.90;;;;;;7374672;19;20033;-64
2023/02/21 11:38:04;;;;;;;48.08;36.22;;;10.50;99.90;;;;;;7373204;19;20022;-64
2023/02/21 11:40:31;;;;;;;47.45;36.17;;;10.40;99.90;;;;;;7376358;19;20020;-64
2023/02/21 11:43:20;;;;;;;45.42;36.40;;;10.50;99.90;;;;;;7378116;19;20862;-64
2023/02/21 11:46:11;;;;;;;47.28;37.50;;;10.50;99.90;;;;;;7376114;19;20025;-64
2023/02/21 11:49:14;;;;;;;53.40;35.70;;;10.50;99.90;;;;;;7367619;19;20022;-63
2023/02/21 11:52:13;;;;;;;;;;;10.50;99.90;;;;;;7367379;19;20081;-64
2023/02/21 11:54:40;;;;;;;46.83;35.95;;;10.50;99.90;;;;;;7367176;19;19940;-64
2023/02/21 11:57:25;;;;;;;47.40;35.20;;;10.40;99.90;;;;;;7366094;19;20014;-64
2023/02/21 12:00:10;;;;;;;53.22;35.20;;;10.40;99.90;;;;;;7365018;19;20106;-64
2023/02/21 12:03:17;;;;;;;46.85;37.05;;;10.40;99.90;;;;;;7366985;19;20735;-64
2023/02/21 12:06:01;;;;;;;44.50;33.80;;;10.30;99.90;;;;;;7365449;19;20015;-63
2023/02/21 12:08:38;;;;;;;46.50;36.33;;;10.40;99.90;;;;;;7366389;19;20474;-64
2023/02/21 12:11:20;;;;;;;50.47;35.90;;;10.40;99.90;;;;;;7364950;19;20047;-64
2023/02/21 12:14:21;;;;;;;43.72;34.58;;;10.40;99.90;;;;;;7368091;19;20045;-64
2023/02/21 12:17:02;;;;;;;47.92;36.28;;;10.40;99.90;;;;;;7367304;19;22233;-63
2023/02/21 12:20:05;;;;;;;44.58;33.75;;;10.40;99.90;;;;;;7365401;19;20896;-64
2023/02/21 12:22:57;;;;;;;44.45;34.97;;;10.40;99.90;;;;;;7365213;19;20729;-64
2023/02/21 12:25:27;;;;;;;47.22;36.40;;;10.40;99.90;;;;;;7364501;19;20018;-64
2023/02/21 12:28:37;;;;;;;43.70;34.63;;;10.50;99.90;;;;;;7366189;19;20366;-64
2023/02/21 12:31:37;;;;;;;47.83;36.42;;;10.50;99.90;;;;;;7360084;19;20280;-64
2023/02/21 12:34:23;;;;;;;44.50;34.95;;;10.50;99.90;;;;;;7362523;19;20031;-64
2023/02/21 12:36:56;;;;;;;48.88;35.80;;;10.60;99.90;;;;;;7363765;19;20090;-64
2023/02/21 12:39:48;;;;;;;44.22;34.53;;;10.50;99.90;;;;;;7366781;19;20090;-64
2023/02/21 12:42:45;;;;;;;43.75;34.88;;;10.50;99.90;;;;;;7362712;19;20025;-64
2023/02/21 12:45:29;;;;;;;44.20;35.15;;;10.50;99.90;;;;;;7362352;19;20029;-64
2023/02/21 12:48:04;;;;;;;47.70;35.20;;;10.40;99.90;;;;;;7360649;19;20481;-64
2023/02/21 12:50:49;;;;;;;46.03;35.10;;;10.50;99.90;;;;;;7364075;19;20021;-64
2023/02/21 12:53:38;;;;;;;44.88;36.03;;;10.40;99.90;;;;;;7367594;19;20026;-64
2023/02/21 12:56:16;;;;;;;46.63;36.95;;;10.40;99.90;;;;;;7358902;19;20308;-64
2023/02/21 12:59:03;;;;;;;48.22;35.47;;;10.30;99.90;;;;;;7366442;19;20037;-64
2023/02/21 13:01:35;;;;;;;48.08;34.67;;;10.30;99.90;;;;;;7361048;19;20010;-63
2023/02/21 13:04:23;;;;;;;48.40;35.47;;;10.40;99.90;;;;;;7364165;19;20508;-63
2023/02/21 13:06:56;;;;;;;41.50;35.40;;;10.40;99.90;;;;;;7362637;19;20022;-64
2023/02/21 13:09:40;;;;;;;44.05;35.08;;;10.30;99.90;;;;;;7365655;19;20022;-64
2023/02/21 13:12:13;;;;;;;44.70;33.20;;;10.30;99.90;;;;;;7360181;19;20398;-64
2023/02/21 13:14:46;;;;;;;48.90;36.20;;;10.30;99.90;;;;;;7362123;19;20023;-64
2023/02/21 13:17:15;;;;;;;44.92;35.25;;;10.30;99.90;;;;;;7362993;19;21241;-64
2023/02/21 13:20:05;;;;;;;47.67;34.72;;;10.30;99.90;;;;;;7365550;19;20034;-64
2023/02/21 13:22:50;;;;;;;41.30;35.05;;;10.30;99.90;;;;;;7362566;19;20029;-64
2023/02/21 13:25:23;;;;;;;45.38;35.42;;;10.20;99.90;;;;;;7361615;19;20025;-64
2023/02/21 13:28:10;;;;;;;47.92;35.30;;;10.20;99.90;;;;;;7362030;19;20027;-64
2023/02/21 13:30:47;;;;;;;49.72;35.95;;;10.30;99.90;;;;;;7362808;19;20026;-64
2023/02/21 13:33:42;;;;;;;49.00;37.20;;;10.30;99.90;;;;;;7362739;19;20014;-63
2023/02/21 13:36:31;;;;;;;50.70;36.70;;;10.30;99.90;;;;;;7364151;19;20013;-64
2023/02/21 13:39:01;;;;;;;51.15;38.25;;;10.30;99.90;;;;;;7364717;19;20022;-64
2023/02/21 13:41:32;;;;;;;49.50;36.25;;;10.30;99.90;;;;;;7362838;19;20011;-64
2023/02/21 13:44:04;;;;;;;50.38;35.60;;;10.30;99.90;;;;;;7360217;19;20561;-64
2023/02/21 13:46:30;;;;;;;50.80;35.80;;;10.30;99.90;;;;;;7361913;19;20861;-64
2023/02/21 13:49:35;;;;;;;46.08;34.92;;;10.30;99.90;;;;;;7363890;19;20393;-64
2023/02/21 13:52:23;;;;;;;49.15;36.83;;;10.30;99.90;;;;;;7358113;19;20658;-64
2023/02/21 13:55:15;;;;;;;47.25;35.85;;;10.30;99.90;;;;;;7358682;19;20474;-65
2023/02/21 13:58:14;;;;;;;49.72;37.40;;;10.20;99.90;;;;;;7366053;19;20846;-64
2023/02/21 14:00:40;;;;;;;49.38;36.20;;;10.20;99.90;;;;;;7361875;19;20489;-64
2023/02/21 14:03:08;;;;;;;49.42;35.38;;;10.20;99.90;;;;;;7355327;19;20018;-64
2023/02/21 14:05:43;;;;;;;49.33;37.58;;;10.20;99.90;;;;;;7357694;19;20366;-64
2023/02/21 14:08:15;;;;;;;48.72;36.47;;;10.20;99.90;;;;;;7363168;19;20478;-64
2023/02/21 14:10:54;;;;;;;54.27;38.90;;;10.20;99.90;;;;;;7362683;19;20017;-63
2023/02/21 14:13:22;;;;;;;55.33;38.40;;;10.10;99.90;;;;;;7363200;19;20711;-64
2023/02/21 14:15:57;;;;;;;51.83;38.17;;;10.10;99.90;;;;;;7357684;19;20211;-64
2023/02/21 14:18:28;;;;;;;49.95;36.90;;;10.20;99.90;;;;;;7355705;19;20035;-64
2023/02/21 14:20:56;;;;;;;52.83;37.67;;;10.20;99.90;;;;;;7357074;19;20840;-64
2023/02/21 14:23:34;;;;;;;48.55;35.90;;;10.10;99.90;;;;;;7357969;19;20014;-64
2023/02/21 14:26:02;;;;;;;55.78;37.63;;;10.10;99.90;;;;;;7369001;19;20123;-64
2023/02/21 14:28:55;;;;;;;50.83;36.15;;;10.20;99.90;;;;;;7372276;19;20055;-64
2023/02/21 14:31:57;;;;;;;49.72;36.40;;;10.20;99.90;;;;;;7372969;19;20006;-64
2023/02/21 14:34:36;;;;;;;51.55;38.40;;;10.20;99.90;;;;;;7374722;19;20027;-64
2023/02/21 14:37:27;;;;;;;50.72;37.17;;;10.10;99.90;;;;;;7362857;19;20030;-64
2023/02/21 14:40:10;;;;;;;53.47;36.47;;;10.00;99.90;;;;;;7366968;19;20098;-64
2023/02/21 14:43:15;;;;;;;50.97;38.38;;;10.00;99.90;;;;;;7370030;19;20501;-64
2023/02/21 14:45:50;;;;;;;55.17;38.25;;;10.00;99.90;;;;;;7370750;19;20018;-64
2023/02/21 14:48:38;;;;;;;50.53;38.08;;;10.00;99.90;;;;;;7370234;19;20029;-64
2023/02/21 14:51:42;;;;;;;53.13;38.20;;;10.00;99.90;;;;;;7371893;19;20029;-64
2023/02/21 14:54:30;;;;;;;53.17;39.67;;;10.00;99.90;;;;;;7370514;19;20785;-64
2023/02/21 14:57:15;;;;;;;56.15;40.15;;;10.00;99.90;;;;;;7369092;19;20018;-64
2023/02/21 14:59:54;;;;;;;55.38;39.97;;;10.00;99.90;;;;;;7371697;19;20182;-64
2023/02/21 15:02:46;;;;;;;50.33;37.15;;;10.00;99.90;;;;;;7370316;19;20476;-64
2023/02/21 15:05:25;;;;;;;55.67;40.58;;;10.00;99.90;;;;;;7368793;19;20031;-64
2023/02/21 15:07:59;;;;;;;63.80;41.08;;;10.00;99.90;;;;;;7368298;19;20041;-64
2023/02/21 15:10:41;;;;;;;60.22;41.72;;;10.00;99.90;;;;;;7372340;19;20011;-64
2023/02/21 15:13:22;;;;;;;60.22;40.65;;;10.00;99.90;;;;;;7371960;19;20489;-64
2023/02/21 15:16:02;;;;;;;58.38;41.08;;;10.00;99.90;;;;;;7370656;19;20760;-65
2023/02/21 15:18:34;;;;;;;64.20;42.25;;;10.00;99.90;;;;;;7370312;19;20102;-66
2023/02/21 15:21:13;;;;;;;58.35;41.10;;;9.90;99.90;;;;;;7370071;19;20618;-64
2023/02/21 15:23:42;;;;;;;69.00;43.63;;;9.90;99.90;;;;;;7369239;19;20625;-64